sensor_id;sensor_type;location;lat;lon;timestamp;temperature;humidity
7530;DHT22;3806;52.270;10.544;2024-01-16T00:00:13;2.70;99.90
7530;DHT22;3806;52.270;10.544;2024-01-16T00:02:40;2.70;99.90
7530;DHT22;3806;52.270;10.544;2024-01-16T00:05:06;2.70;99.90
7530;DHT22;3806;52.270;10.544;2024-01-16T00:07:31;2.80;99.90
7530;DHT22;3806;52.270;10.544;2024-01-16T00:09:59;2.70;99.90
7530;DHT22;3806;52.270;10.544;2024-01-16T00:12:25;2.70;99.90
7530;DHT22;3806;52.270;10.544;2024-01-16T00:14:51;2.80;99.90
7530;DHT22;3806;52.270;10.544;2024-01-16T00:17:16;2.80;99.90
7530;DHT22;3806;52.270;10.544;2024-01-16T00:19:43;2.80;99.90
7530;DHT22;3806;52.270;10.544;2024-01-16T00:22:09;2.80;99.90
7530;DHT22;3806;52.270;10.544;2024-01-16T00:24:35;2.80;99.90
7530;DHT22;3806;52.270;10.544;2024-01-16T00:27:01;2.80;99.90
7530;DHT22;3806;52.270;10.544;2024-01-16T00:29:27;2.80;99.90
7530;DHT22;3806;52.270;10.544;2024-01-16T00:31:53;2.80;99.90
7530;DHT22;3806;52.270;10.544;2024-01-16T00:34:20;2.80;99.90
7530;DHT22;3806;52.270;10.544;2024-01-16T00:36:46;2.80;99.90
7530;DHT22;3806;52.270;10.544;2024-01-16T00:39:11;2.80;99.90
7530;DHT22;3806;52.270;10.544;2024-01-16T00:41:39;2.80;99.90
7530;DHT22;3806;52.270;10.544;2024-01-16T00:44:05;2.80;99.90
7530;DHT22;3806;52.270;10.544;2024-01-16T00:46:31;2.80;99.90
7530;DHT22;3806;52.270;10.544;2024-01-16T00:48:56;2.80;99.90
7530;DHT22;3806;52.270;10.544;2024-01-16T00:51:23;2.80;99.90
7530;DHT22;3806;52.270;10.544;2024-01-16T00:53:49;2.80;99.90
7530;DHT22;3806;52.270;10.544;2024-01-16T00:56:15;2.80;99.90
7530;DHT22;3806;52.270;10.544;2024-01-16T00:58:41;2.80;99.90
7530;DHT22;3806;52.270;10.544;2024-01-16T01:01:07;2.80;99.90
7530;DHT22;3806;52.270;10.544;2024-01-16T01:03:33;2.70;99.90
7530;DHT22;3806;52.270;10.544;2024-01-16T01:06:00;2.70;99.90
7530;DHT22;3806;52.270;10.544;2024-01-16T01:08:26;2.70;99.90
7530;DHT22;3806;52.270;10.544;2024-01-16T01:10:52;2.70;99.90
7530;DHT22;3806;52.270;10.544;2024-01-16T01:13:18;2.70;99.90
7530;DHT22;3806;52.270;10.544;2024-01-16T01:15:44;2.70;99.90
7530;DHT22;3806;52.270;10.544;2024-01-16T01:18:10;2.70;99.90
7530;DHT22;3806;52.270;10.544;2024-01-16T01:20:35;2.70;99.90
7530;DHT22;3806;52.270;10.544;2024-01-16T01:23:02;2.60;99.90
7530;DHT22;3806;52.270;10.544;2024-01-16T01:25:28;2.60;99.90
7530;DHT22;3806;52.270;10.544;2024-01-16T01:27:54;2.60;99.90
7530;DHT22;3806;52.270;10.544;2024-01-16T01:30:20;2.60;99.90
7530;DHT22;3806;52.270;10.544;2024-01-16T01:32:46;2.50;99.90
7530;DHT22;3806;52.270;10.544;2024-01-16T01:35:11;2.50;99.90
7530;DHT22;3806;52.270;10.544;2024-01-16T01:37:38;2.50;99.90
7530;DHT22;3806;52.270;10.544;2024-01-16T01:40:04;2.50;99.90
7530;DHT22;3806;52.270;10.544;2024-01-16T01:42:31;2.50;99.90
7530;DHT22;3806;52.270;10.544;2024-01-16T01:44:56;2.50;99.90
7530;DHT22;3806;52.270;10.544;2024-01-16T01:47:23;2.50;99.90
7530;DHT22;3806;52.270;10.544;2024-01-16T01:49:51;2.50;99.90
7530;DHT22;3806;52.270;10.544;2024-01-16T01:52:17;2.60;99.90
7530;DHT22;3806;52.270;10.544;2024-01-16T01:54:45;2.60;99.90
7530;DHT22;3806;52.270;10.544;2024-01-16T01:57:11;2.50;99.90
7530;DHT22;3806;52.270;10.544;2024-01-16T01:59:37;2.50;99.90
7530;DHT22;3806;52.270;10.544;2024-01-16T02:02:04;2.60;99.90
7530;DHT22;3806;52.270;10.544;2024-01-16T02:04:31;2.60;99.90
7530;DHT22;3806;52.270;10.544;2024-01-16T02:06:58;2.60;99.90
7530;DHT22;3806;52.270;10.544;2024-01-16T02:09:23;2.60;99.90
7530;DHT22;3806;52.270;10.544;2024-01-16T02:11:50;2.60;99.90
7530;DHT22;3806;52.270;10.544;2024-01-16T02:14:15;2.60;99.90
7530;DHT22;3806;52.270;10.544;2024-01-16T02:16:42;2.60;99.90
7530;DHT22;3806;52.270;10.544;2024-01-16T02:19:09;2.60;99.90
7530;DHT22;3806;52.270;10.544;2024-01-16T02:21:46;2.60;99.90
7530;DHT22;3806;52.270;10.544;2024-01-16T02:24:18;2.60;99.90
7530;DHT22;3806;52.270;10.544;2024-01-16T02:26:44;2.60;99.90
7530;DHT22;3806;52.270;10.544;2024-01-16T02:29:11;2.60;99.90
7530;DHT22;3806;52.270;10.544;2024-01-16T02:31:36;2.60;99.90
7530;DHT22;3806;52.270;10.544;2024-01-16T02:34:03;2.60;99.90
7530;DHT22;3806;52.270;10.544;2024-01-16T02:36:32;2.50;99.90
7530;DHT22;3806;52.270;10.544;2024-01-16T02:39:00;2.50;99.90
7530;DHT22;3806;52.270;10.544;2024-01-16T02:41:26;2.50;99.90
7530;DHT22;3806;52.270;10.544;2024-01-16T02:43:52;2.50;99.90
7530;DHT22;3806;52.270;10.544;2024-01-16T02:46:18;2.50;99.90
7530;DHT22;3806;52.270;10.544;2024-01-16T02:48:44;2.40;99.90
7530;DHT22;3806;52.270;10.544;2024-01-16T02:51:10;2.40;99.90
7530;DHT22;3806;52.270;10.544;2024-01-16T02:53:37;2.40;99.90
7530;DHT22;3806;52.270;10.544;2024-01-16T02:56:03;2.40;99.90
7530;DHT22;3806;52.270;10.544;2024-01-16T02:58:29;2.40;99.90
7530;DHT22;3806;52.270;10.544;2024-01-16T03:00:56;2.30;99.90
7530;DHT22;3806;52.270;10.544;2024-01-16T03:03:23;2.30;99.90
7530;DHT22;3806;52.270;10.544;2024-01-16T03:05:52;2.30;99.90
7530;DHT22;3806;52.270;10.544;2024-01-16T03:08:18;2.30;99.90
7530;DHT22;3806;52.270;10.544;2024-01-16T03:10:44;2.30;99.90
7530;DHT22;3806;52.270;10.544;2024-01-16T03:13:11;2.30;99.90
7530;DHT22;3806;52.270;10.544;2024-01-16T03:15:36;2.20;99.90
7530;DHT22;3806;52.270;10.544;2024-01-16T03:18:02;2.30;99.90
7530;DHT22;3806;52.270;10.544;2024-01-16T03:20:28;2.20;99.90
7530;DHT22;3806;52.270;10.544;2024-01-16T03:22:54;2.30;99.90
7530;DHT22;3806;52.270;10.544;2024-01-16T03:25:20;2.30;99.90
7530;DHT22;3806;52.270;10.544;2024-01-16T03:27:47;2.30;99.90
7530;DHT22;3806;52.270;10.544;2024-01-16T03:30:13;2.30;99.90
7530;DHT22;3806;52.270;10.544;2024-01-16T03:32:39;2.30;99.90
7530;DHT22;3806;52.270;10.544;2024-01-16T03:35:08;2.30;99.90
7530;DHT22;3806;52.270;10.544;2024-01-16T03:37:35;2.30;99.90
7530;DHT22;3806;52.270;10.544;2024-01-16T03:40:03;2.30;99.90
7530;DHT22;3806;52.270;10.544;2024-01-16T03:42:29;2.30;99.90
7530;DHT22;3806;52.270;10.544;2024-01-16T03:44:55;2.40;99.90
7530;DHT22;3806;52.270;10.544;2024-01-16T03:47:20;2.40;99.90
7530;DHT22;3806;52.270;10.544;2024-01-16T03:49:47;2.40;99.90
7530;DHT22;3806;52.270;10.544;2024-01-16T03:52:13;2.40;99.90
7530;DHT22;3806;52.270;10.544;2024-01-16T03:54:39;2.30;99.90
7530;DHT22;3806;52.270;10.544;2024-01-16T03:57:05;2.30;99.90
7530;DHT22;3806;52.270;10.544;2024-01-16T03:59:31;2.30;99.90
7530;DHT22;3806;52.270;10.544;2024-01-16T04:01:57;2.30;99.90
7530;DHT22;3806;52.270;10.544;2024-01-16T04:04:23;2.30;99.90
7530;DHT22;3806;52.270;10.544;2024-01-16T04:06:49;2.30;99.90
7530;DHT22;3806;52.270;10.544;2024-01-16T04:09:15;2.30;99.90
7530;DHT22;3806;52.270;10.544;2024-01-16T04:11:41;2.30;99.90
7530;DHT22;3806;52.270;10.544;2024-01-16T04:14:07;2.30;99.90
7530;DHT22;3806;52.270;10.544;2024-01-16T04:16:33;2.20;99.90
7530;DHT22;3806;52.270;10.544;2024-01-16T04:18:59;2.20;99.90
7530;DHT22;3806;52.270;10.544;2024-01-16T04:21:25;2.20;99.90
7530;DHT22;3806;52.270;10.544;2024-01-16T04:23:51;2.20;99.90
7530;DHT22;3806;52.270;10.544;2024-01-16T04:26:17;2.20;99.90
7530;DHT22;3806;52.270;10.544;2024-01-16T04:28:43;2.20;99.90
7530;DHT22;3806;52.270;10.544;2024-01-16T04:31:09;2.20;99.90
7530;DHT22;3806;52.270;10.544;2024-01-16T04:33:37;2.20;99.90
7530;DHT22;3806;52.270;10.544;2024-01-16T04:36:04;2.10;99.90
7530;DHT22;3806;52.270;10.544;2024-01-16T04:38:30;2.10;99.90
7530;DHT22;3806;52.270;10.544;2024-01-16T04:40:55;2.10;99.90
7530;DHT22;3806;52.270;10.544;2024-01-16T04:43:21;2.00;99.90
7530;DHT22;3806;52.270;10.544;2024-01-16T04:45:46;2.10;99.90
7530;DHT22;3806;52.270;10.544;2024-01-16T04:48:12;2.10;99.90
7530;DHT22;3806;52.270;10.544;2024-01-16T04:50:38;2.10;99.90
7530;DHT22;3806;52.270;10.544;2024-01-16T04:53:03;2.10;99.90
7530;DHT22;3806;52.270;10.544;2024-01-16T04:55:29;2.10;99.90
7530;DHT22;3806;52.270;10.544;2024-01-16T04:57:56;2.10;99.90
7530;DHT22;3806;52.270;10.544;2024-01-16T05:00:22;2.10;99.90
7530;DHT22;3806;52.270;10.544;2024-01-16T05:02:47;2.10;99.90
7530;DHT22;3806;52.270;10.544;2024-01-16T05:05:13;2.10;99.90
7530;DHT22;3806;52.270;10.544;2024-01-16T05:07:40;2.10;99.90
7530;DHT22;3806;52.270;10.544;2024-01-16T05:10:06;2.10;99.90
7530;DHT22;3806;52.270;10.544;2024-01-16T05:12:32;2.10;99.90
7530;DHT22;3806;52.270;10.544;2024-01-16T05:14:59;2.10;99.90
7530;DHT22;3806;52.270;10.544;2024-01-16T05:17:24;2.10;99.90
7530;DHT22;3806;52.270;10.544;2024-01-16T05:19:50;2.20;99.90
7530;DHT22;3806;52.270;10.544;2024-01-16T05:22:16;2.20;99.90
7530;DHT22;3806;52.270;10.544;2024-01-16T05:24:41;2.20;99.90
7530;DHT22;3806;52.270;10.544;2024-01-16T05:27:07;2.20;99.90
7530;DHT22;3806;52.270;10.544;2024-01-16T05:29:34;2.20;99.90
7530;DHT22;3806;52.270;10.544;2024-01-16T05:32:03;2.20;99.90
7530;DHT22;3806;52.270;10.544;2024-01-16T05:34:29;2.20;99.90
7530;DHT22;3806;52.270;10.544;2024-01-16T05:36:54;2.10;99.90
7530;DHT22;3806;52.270;10.544;2024-01-16T05:39:20;2.10;99.90
7530;DHT22;3806;52.270;10.544;2024-01-16T05:41:46;2.10;99.90
7530;DHT22;3806;52.270;10.544;2024-01-16T05:44:12;2.00;99.90
7530;DHT22;3806;52.270;10.544;2024-01-16T05:46:38;2.00;99.90
7530;DHT22;3806;52.270;10.544;2024-01-16T05:49:04;1.90;99.90
7530;DHT22;3806;52.270;10.544;2024-01-16T05:51:29;1.90;99.90
7530;DHT22;3806;52.270;10.544;2024-01-16T05:53:56;1.90;99.90
7530;DHT22;3806;52.270;10.544;2024-01-16T05:56:22;2.00;99.90
7530;DHT22;3806;52.270;10.544;2024-01-16T05:58:48;2.00;99.90
7530;DHT22;3806;52.270;10.544;2024-01-16T06:01:17;2.00;99.90
7530;DHT22;3806;52.270;10.544;2024-01-16T06:03:45;1.90;99.90
7530;DHT22;3806;52.270;10.544;2024-01-16T06:06:12;2.00;99.90
7530;DHT22;3806;52.270;10.544;2024-01-16T06:08:38;1.90;99.90
7530;DHT22;3806;52.270;10.544;2024-01-16T06:11:03;1.90;99.90
7530;DHT22;3806;52.270;10.544;2024-01-16T06:13:29;1.90;99.90
7530;DHT22;3806;52.270;10.544;2024-01-16T06:15:57;1.90;99.90
7530;DHT22;3806;52.270;10.544;2024-01-16T06:18:23;1.80;99.90
7530;DHT22;3806;52.270;10.544;2024-01-16T06:20:48;1.80;99.90
7530;DHT22;3806;52.270;10.544;2024-01-16T06:23:14;1.90;99.90
7530;DHT22;3806;52.270;10.544;2024-01-16T06:25:39;1.80;99.90
7530;DHT22;3806;52.270;10.544;2024-01-16T06:28:05;1.90;99.90
7530;DHT22;3806;52.270;10.544;2024-01-16T06:30:32;1.80;99.90
7530;DHT22;3806;52.270;10.544;2024-01-16T06:32:58;1.80;99.90
7530;DHT22;3806;52.270;10.544;2024-01-16T06:35:23;1.80;99.90
7530;DHT22;3806;52.270;10.544;2024-01-16T06:37:49;1.80;99.90
7530;DHT22;3806;52.270;10.544;2024-01-16T06:40:14;1.80;99.90
7530;DHT22;3806;52.270;10.544;2024-01-16T06:42:40;1.80;99.90
7530;DHT22;3806;52.270;10.544;2024-01-16T06:45:06;1.70;99.90
7530;DHT22;3806;52.270;10.544;2024-01-16T06:47:32;1.70;99.90
7530;DHT22;3806;52.270;10.544;2024-01-16T06:49:58;1.70;99.90
7530;DHT22;3806;52.270;10.544;2024-01-16T06:52:23;1.70;99.90
7530;DHT22;3806;52.270;10.544;2024-01-16T06:54:50;1.60;99.90
7530;DHT22;3806;52.270;10.544;2024-01-16T06:57:15;1.60;99.90
7530;DHT22;3806;52.270;10.544;2024-01-16T06:59:41;1.60;99.90
7530;DHT22;3806;52.270;10.544;2024-01-16T07:02:06;1.60;99.90
7530;DHT22;3806;52.270;10.544;2024-01-16T07:04:33;1.50;99.90
7530;DHT22;3806;52.270;10.544;2024-01-16T07:06:59;1.50;99.90
7530;DHT22;3806;52.270;10.544;2024-01-16T07:09:25;1.50;99.90
7530;DHT22;3806;52.270;10.544;2024-01-16T07:11:52;1.60;99.90
7530;DHT22;3806;52.270;10.544;2024-01-16T07:14:18;1.60;99.90
7530;DHT22;3806;52.270;10.544;2024-01-16T07:16:43;1.60;99.90
7530;DHT22;3806;52.270;10.544;2024-01-16T07:19:09;1.60;99.90
7530;DHT22;3806;52.270;10.544;2024-01-16T07:21:34;1.60;99.90
7530;DHT22;3806;52.270;10.544;2024-01-16T07:24:00;1.60;99.90
7530;DHT22;3806;52.270;10.544;2024-01-16T07:26:26;1.60;99.90
7530;DHT22;3806;52.270;10.544;2024-01-16T07:28:52;1.70;99.90
7530;DHT22;3806;52.270;10.544;2024-01-16T07:31:17;1.70;99.90
7530;DHT22;3806;52.270;10.544;2024-01-16T07:33:43;1.70;99.90
7530;DHT22;3806;52.270;10.544;2024-01-16T07:36:09;1.80;99.90
7530;DHT22;3806;52.270;10.544;2024-01-16T07:38:35;1.90;99.90
7530;DHT22;3806;52.270;10.544;2024-01-16T07:41:04;1.90;99.90
7530;DHT22;3806;52.270;10.544;2024-01-16T07:43:31;2.10;99.90
7530;DHT22;3806;52.270;10.544;2024-01-16T07:45:56;2.10;99.90
7530;DHT22;3806;52.270;10.544;2024-01-16T07:48:22;2.20;99.90
7530;DHT22;3806;52.270;10.544;2024-01-16T07:50:50;2.20;99.90
7530;DHT22;3806;52.270;10.544;2024-01-16T07:53:16;2.30;99.90
7530;DHT22;3806;52.270;10.544;2024-01-16T07:55:42;2.30;99.90
7530;DHT22;3806;52.270;10.544;2024-01-16T07:58:11;2.30;99.90
7530;DHT22;3806;52.270;10.544;2024-01-16T08:00:36;2.50;99.90
7530;DHT22;3806;52.270;10.544;2024-01-16T08:03:02;2.50;99.90
7530;DHT22;3806;52.270;10.544;2024-01-16T08:05:28;2.60;99.90
7530;DHT22;3806;52.270;10.544;2024-01-16T08:07:58;2.70;99.90
7530;DHT22;3806;52.270;10.544;2024-01-16T08:10:23;2.70;99.90
7530;DHT22;3806;52.270;10.544;2024-01-16T08:12:49;2.80;99.90
7530;DHT22;3806;52.270;10.544;2024-01-16T08:15:15;2.90;99.90
7530;DHT22;3806;52.270;10.544;2024-01-16T08:17:41;3.00;99.90
7530;DHT22;3806;52.270;10.544;2024-01-16T08:20:09;3.10;99.90
7530;DHT22;3806;52.270;10.544;2024-01-16T08:22:38;3.30;99.90
7530;DHT22;3806;52.270;10.544;2024-01-16T08:25:05;3.50;99.90
7530;DHT22;3806;52.270;10.544;2024-01-16T08:27:31;3.70;99.90
7530;DHT22;3806;52.270;10.544;2024-01-16T08:29:56;3.80;99.90
7530;DHT22;3806;52.270;10.544;2024-01-16T08:32:22;3.90;99.90
7530;DHT22;3806;52.270;10.544;2024-01-16T08:34:48;4.20;99.90
7530;DHT22;3806;52.270;10.544;2024-01-16T08:37:13;4.50;99.90
7530;DHT22;3806;52.270;10.544;2024-01-16T08:39:39;5.00;99.90
7530;DHT22;3806;52.270;10.544;2024-01-16T08:42:05;5.60;99.60
7530;DHT22;3806;52.270;10.544;2024-01-16T08:44:31;6.10;98.40
7530;DHT22;3806;52.270;10.544;2024-01-16T08:46:56;6.60;97.20
7530;DHT22;3806;52.270;10.544;2024-01-16T08:49:24;6.90;95.50
7530;DHT22;3806;52.270;10.544;2024-01-16T08:51:50;7.00;94.10
7530;DHT22;3806;52.270;10.544;2024-01-16T08:54:15;6.70;93.70
7530;DHT22;3806;52.270;10.544;2024-01-16T08:56:41;6.60;94.10
7530;DHT22;3806;52.270;10.544;2024-01-16T08:59:06;6.60;93.80
7530;DHT22;3806;52.270;10.544;2024-01-16T09:01:33;6.30;93.90
7530;DHT22;3806;52.270;10.544;2024-01-16T09:03:59;6.00;94.30
7530;DHT22;3806;52.270;10.544;2024-01-16T09:06:24;5.90;95.20
7530;DHT22;3806;52.270;10.544;2024-01-16T09:08:50;5.90;95.20
7530;DHT22;3806;52.270;10.544;2024-01-16T09:11:15;6.10;94.80
7530;DHT22;3806;52.270;10.544;2024-01-16T09:13:41;6.10;94.60
7530;DHT22;3806;52.270;10.544;2024-01-16T09:16:06;6.30;94.80
7530;DHT22;3806;52.270;10.544;2024-01-16T09:18:32;6.60;94.40
7530;DHT22;3806;52.270;10.544;2024-01-16T09:20:57;6.90;93.60
7530;DHT22;3806;52.270;10.544;2024-01-16T09:23:23;7.20;93.00
7530;DHT22;3806;52.270;10.544;2024-01-16T09:25:49;7.20;92.20
7530;DHT22;3806;52.270;10.544;2024-01-16T09:28:15;7.10;91.90
7530;DHT22;3806;52.270;10.544;2024-01-16T09:30:41;6.90;91.80
7530;DHT22;3806;52.270;10.544;2024-01-16T09:33:07;6.50;92.30
7530;DHT22;3806;52.270;10.544;2024-01-16T09:35:35;6.30;92.80
7530;DHT22;3806;52.270;10.544;2024-01-16T09:38:01;6.00;93.00
7530;DHT22;3806;52.270;10.544;2024-01-16T09:40:26;5.80;93.80
7530;DHT22;3806;52.270;10.544;2024-01-16T09:42:52;5.60;94.30
7530;DHT22;3806;52.270;10.544;2024-01-16T09:45:21;5.60;94.50
7530;DHT22;3806;52.270;10.544;2024-01-16T09:47:50;5.50;94.70
7530;DHT22;3806;52.270;10.544;2024-01-16T09:50:16;5.50;94.90
7530;DHT22;3806;52.270;10.544;2024-01-16T09:52:45;5.60;95.20
7530;DHT22;3806;52.270;10.544;2024-01-16T09:55:11;5.70;94.80
7530;DHT22;3806;52.270;10.544;2024-01-16T09:57:39;5.80;94.80
7530;DHT22;3806;52.270;10.544;2024-01-16T10:00:09;5.90;94.50
7530;DHT22;3806;52.270;10.544;2024-01-16T10:02:39;5.90;94.40
7530;DHT22;3806;52.270;10.544;2024-01-16T10:05:09;5.90;94.50
7530;DHT22;3806;52.270;10.544;2024-01-16T10:07:39;5.90;94.30
7530;DHT22;3806;52.270;10.544;2024-01-16T10:10:06;5.80;94.10
7530;DHT22;3806;52.270;10.544;2024-01-16T10:12:32;5.70;94.20
7530;DHT22;3806;52.270;10.544;2024-01-16T10:14:59;5.60;94.70
7530;DHT22;3806;52.270;10.544;2024-01-16T10:17:43;5.60;94.70
7530;DHT22;3806;52.270;10.544;2024-01-16T10:20:10;5.60;94.90
7530;DHT22;3806;52.270;10.544;2024-01-16T10:22:53;5.80;94.80
7530;DHT22;3806;52.270;10.544;2024-01-16T10:25:19;5.90;94.50
7530;DHT22;3806;52.270;10.544;2024-01-16T10:27:46;6.00;94.00
7530;DHT22;3806;52.270;10.544;2024-01-16T10:30:12;5.90;94.10
7530;DHT22;3806;52.270;10.544;2024-01-16T10:32:39;5.90;94.20
7530;DHT22;3806;52.270;10.544;2024-01-16T10:35:13;5.90;93.90
7530;DHT22;3806;52.270;10.544;2024-01-16T10:37:52;5.90;94.00
7530;DHT22;3806;52.270;10.544;2024-01-16T10:40:20;5.90;94.20
7530;DHT22;3806;52.270;10.544;2024-01-16T10:42:57;6.00;94.20
7530;DHT22;3806;52.270;10.544;2024-01-16T10:45:23;6.10;94.00
7530;DHT22;3806;52.270;10.544;2024-01-16T10:48:02;6.10;94.10
7530;DHT22;3806;52.270;10.544;2024-01-16T10:50:28;6.20;93.90
7530;DHT22;3806;52.270;10.544;2024-01-16T10:52:54;6.20;93.80
7530;DHT22;3806;52.270;10.544;2024-01-16T10:55:22;6.00;93.70
7530;DHT22;3806;52.270;10.544;2024-01-16T10:57:51;6.00;94.10
7530;DHT22;3806;52.270;10.544;2024-01-16T11:00:21;5.90;94.40
7530;DHT22;3806;52.270;10.544;2024-01-16T11:02:51;5.80;94.50
7530;DHT22;3806;52.270;10.544;2024-01-16T11:05:19;5.80;94.80
7530;DHT22;3806;52.270;10.544;2024-01-16T11:07:46;5.90;94.90
7530;DHT22;3806;52.270;10.544;2024-01-16T11:10:13;5.80;94.70
7530;DHT22;3806;52.270;10.544;2024-01-16T11:12:39;5.60;94.90
7530;DHT22;3806;52.270;10.544;2024-01-16T11:15:07;5.60;95.30
7530;DHT22;3806;52.270;10.544;2024-01-16T11:17:34;5.60;95.50
7530;DHT22;3806;52.270;10.544;2024-01-16T11:20:04;5.60;95.40
7530;DHT22;3806;52.270;10.544;2024-01-16T11:22:37;5.60;95.30
7530;DHT22;3806;52.270;10.544;2024-01-16T11:25:13;5.70;95.30
7530;DHT22;3806;52.270;10.544;2024-01-16T11:27:41;5.70;95.30
7530;DHT22;3806;52.270;10.544;2024-01-16T11:30:08;5.70;95.30
7530;DHT22;3806;52.270;10.544;2024-01-16T11:32:38;5.80;95.70
7530;DHT22;3806;52.270;10.544;2024-01-16T11:35:08;5.80;95.40
7530;DHT22;3806;52.270;10.544;2024-01-16T11:37:36;5.80;95.10
7530;DHT22;3806;52.270;10.544;2024-01-16T11:42:49;5.80;94.80
7530;DHT22;3806;52.270;10.544;2024-01-16T11:48:12;5.70;95.20
7530;DHT22;3806;52.270;10.544;2024-01-16T11:50:39;5.60;95.00
7530;DHT22;3806;52.270;10.544;2024-01-16T11:53:04;5.60;95.20
7530;DHT22;3806;52.270;10.544;2024-01-16T11:55:32;5.40;95.10
7530;DHT22;3806;52.270;10.544;2024-01-16T12:00:47;5.30;95.40
7530;DHT22;3806;52.270;10.544;2024-01-16T12:03:18;5.20;95.40
7530;DHT22;3806;52.270;10.544;2024-01-16T12:05:57;5.10;95.60
7530;DHT22;3806;52.270;10.544;2024-01-16T12:08:23;5.00;95.70
7530;DHT22;3806;52.270;10.544;2024-01-16T12:10:49;5.00;95.70
7530;DHT22;3806;52.270;10.544;2024-01-16T12:13:15;4.90;96.00
7530;DHT22;3806;52.270;10.544;2024-01-16T12:15:42;4.90;96.10
7530;DHT22;3806;52.270;10.544;2024-01-16T12:18:09;4.90;96.20
7530;DHT22;3806;52.270;10.544;2024-01-16T12:20:36;5.00;96.40
7530;DHT22;3806;52.270;10.544;2024-01-16T12:23:03;5.10;96.40
7530;DHT22;3806;52.270;10.544;2024-01-16T12:25:30;5.30;96.50
7530;DHT22;3806;52.270;10.544;2024-01-16T12:28:00;5.40;96.20
7530;DHT22;3806;52.270;10.544;2024-01-16T12:30:33;5.50;95.80
7530;DHT22;3806;52.270;10.544;2024-01-16T12:33:13;5.60;95.60
7530;DHT22;3806;52.270;10.544;2024-01-16T12:35:43;5.60;95.20
7530;DHT22;3806;52.270;10.544;2024-01-16T12:38:11;5.70;95.20
7530;DHT22;3806;52.270;10.544;2024-01-16T12:40:40;5.60;95.00
7530;DHT22;3806;52.270;10.544;2024-01-16T12:43:06;5.50;95.00
7530;DHT22;3806;52.270;10.544;2024-01-16T12:45:32;5.50;95.00
7530;DHT22;3806;52.270;10.544;2024-01-16T12:47:59;5.30;95.40
7530;DHT22;3806;52.270;10.544;2024-01-16T12:50:26;5.20;95.60
7530;DHT22;3806;52.270;10.544;2024-01-16T12:53:09;5.10;95.80
7530;DHT22;3806;52.270;10.544;2024-01-16T12:55:37;5.10;95.90
7530;DHT22;3806;52.270;10.544;2024-01-16T12:58:16;5.00;96.30
7530;DHT22;3806;52.270;10.544;2024-01-16T13:00:47;4.90;96.60
7530;DHT22;3806;52.270;10.544;2024-01-16T13:03:16;4.80;96.80
7530;DHT22;3806;52.270;10.544;2024-01-16T13:05:43;4.70;97.00
7530;DHT22;3806;52.270;10.544;2024-01-16T13:08:09;4.70;97.30
7530;DHT22;3806;52.270;10.544;2024-01-16T13:10:35;4.60;97.60
7530;DHT22;3806;52.270;10.544;2024-01-16T13:13:27;4.50;97.80
7530;DHT22;3806;52.270;10.544;2024-01-16T13:15:55;4.40;98.00
7530;DHT22;3806;52.270;10.544;2024-01-16T13:18:24;4.30;98.30
7530;DHT22;3806;52.270;10.544;2024-01-16T13:20:53;4.30;98.70
7530;DHT22;3806;52.270;10.544;2024-01-16T13:23:20;4.20;98.90
7530;DHT22;3806;52.270;10.544;2024-01-16T13:25:47;4.20;99.20
7530;DHT22;3806;52.270;10.544;2024-01-16T13:28:14;4.10;99.40
7530;DHT22;3806;52.270;10.544;2024-01-16T13:30:41;4.10;99.40
7530;DHT22;3806;52.270;10.544;2024-01-16T13:33:08;4.00;99.60
7530;DHT22;3806;52.270;10.544;2024-01-16T13:35:44;4.00;99.80
7530;DHT22;3806;52.270;10.544;2024-01-16T13:38:12;4.00;99.90
7530;DHT22;3806;52.270;10.544;2024-01-16T13:40:38;4.00;99.90
7530;DHT22;3806;52.270;10.544;2024-01-16T13:43:04;4.00;99.90
7530;DHT22;3806;52.270;10.544;2024-01-16T13:45:32;3.90;99.90
7530;DHT22;3806;52.270;10.544;2024-01-16T13:47:57;3.90;99.90
7530;DHT22;3806;52.270;10.544;2024-01-16T13:50:23;3.90;99.90
7530;DHT22;3806;52.270;10.544;2024-01-16T13:52:49;3.80;99.90
7530;DHT22;3806;52.270;10.544;2024-01-16T13:55:16;3.80;99.90
7530;DHT22;3806;52.270;10.544;2024-01-16T13:57:41;3.90;99.90
7530;DHT22;3806;52.270;10.544;2024-01-16T14:00:10;3.90;99.90
7530;DHT22;3806;52.270;10.544;2024-01-16T14:02:39;3.90;99.90
7530;DHT22;3806;52.270;10.544;2024-01-16T14:05:08;3.90;99.90
7530;DHT22;3806;52.270;10.544;2024-01-16T14:07:36;3.90;99.90
7530;DHT22;3806;52.270;10.544;2024-01-16T14:10:07;3.90;99.90
7530;DHT22;3806;52.270;10.544;2024-01-16T14:12:35;3.90;99.90
7530;DHT22;3806;52.270;10.544;2024-01-16T14:15:01;3.90;99.90
7530;DHT22;3806;52.270;10.544;2024-01-16T14:17:29;3.90;99.90
7530;DHT22;3806;52.270;10.544;2024-01-16T14:19:55;3.90;99.90
7530;DHT22;3806;52.270;10.544;2024-01-16T14:22:20;3.80;99.90
7530;DHT22;3806;52.270;10.544;2024-01-16T14:24:46;3.80;99.90
7530;DHT22;3806;52.270;10.544;2024-01-16T14:27:13;3.80;99.90
7530;DHT22;3806;52.270;10.544;2024-01-16T14:29:40;3.80;99.90
7530;DHT22;3806;52.270;10.544;2024-01-16T14:32:06;3.70;99.90
7530;DHT22;3806;52.270;10.544;2024-01-16T14:34:32;3.70;99.90
7530;DHT22;3806;52.270;10.544;2024-01-16T14:36:57;3.70;99.90
7530;DHT22;3806;52.270;10.544;2024-01-16T14:39:23;3.60;99.90
7530;DHT22;3806;52.270;10.544;2024-01-16T14:41:50;3.60;99.90
7530;DHT22;3806;52.270;10.544;2024-01-16T14:44:17;3.60;99.90
7530;DHT22;3806;52.270;10.544;2024-01-16T14:46:43;3.50;99.90
7530;DHT22;3806;52.270;10.544;2024-01-16T14:49:09;3.50;99.90
7530;DHT22;3806;52.270;10.544;2024-01-16T14:51:35;3.50;99.90
7530;DHT22;3806;52.270;10.544;2024-01-16T14:54:00;3.50;99.90
7530;DHT22;3806;52.270;10.544;2024-01-16T14:56:27;3.50;99.90
7530;DHT22;3806;52.270;10.544;2024-01-16T14:58:53;3.50;99.90
7530;DHT22;3806;52.270;10.544;2024-01-16T15:01:18;3.40;99.90
7530;DHT22;3806;52.270;10.544;2024-01-16T15:03:44;3.40;99.90
7530;DHT22;3806;52.270;10.544;2024-01-16T15:06:09;3.30;99.90
7530;DHT22;3806;52.270;10.544;2024-01-16T15:08:38;3.30;99.90
7530;DHT22;3806;52.270;10.544;2024-01-16T15:11:04;3.40;99.90
7530;DHT22;3806;52.270;10.544;2024-01-16T15:13:31;3.40;99.90
7530;DHT22;3806;52.270;10.544;2024-01-16T15:15:57;3.40;99.90
7530;DHT22;3806;52.270;10.544;2024-01-16T15:18:22;3.40;99.90
7530;DHT22;3806;52.270;10.544;2024-01-16T15:20:57;3.40;99.90
7530;DHT22;3806;52.270;10.544;2024-01-16T15:23:23;3.40;99.90
7530;DHT22;3806;52.270;10.544;2024-01-16T15:25:50;3.30;99.90
7530;DHT22;3806;52.270;10.544;2024-01-16T15:28:16;3.30;99.90
7530;DHT22;3806;52.270;10.544;2024-01-16T15:30:41;3.30;99.90
7530;DHT22;3806;52.270;10.544;2024-01-16T15:33:08;3.30;99.90
7530;DHT22;3806;52.270;10.544;2024-01-16T15:35:33;3.30;99.90
7530;DHT22;3806;52.270;10.544;2024-01-16T15:37:59;3.20;99.90
7530;DHT22;3806;52.270;10.544;2024-01-16T15:40:24;3.20;99.90
7530;DHT22;3806;52.270;10.544;2024-01-16T15:42:51;3.20;99.90
7530;DHT22;3806;52.270;10.544;2024-01-16T15:45:16;3.10;99.90
7530;DHT22;3806;52.270;10.544;2024-01-16T15:47:42;3.10;99.90
7530;DHT22;3806;52.270;10.544;2024-01-16T15:50:08;3.10;99.90
7530;DHT22;3806;52.270;10.544;2024-01-16T15:52:34;3.00;99.90
7530;DHT22;3806;52.270;10.544;2024-01-16T15:55:00;3.00;99.90
7530;DHT22;3806;52.270;10.544;2024-01-16T15:57:26;3.00;99.90
7530;DHT22;3806;52.270;10.544;2024-01-16T15:59:52;2.90;99.90
7530;DHT22;3806;52.270;10.544;2024-01-16T16:02:17;2.90;99.90
7530;DHT22;3806;52.270;10.544;2024-01-16T16:04:43;2.90;99.90
7530;DHT22;3806;52.270;10.544;2024-01-16T16:07:09;2.90;99.90